Frezya S — H9FC — position and weather

sailwx.info

Track history (hours):
 
Tides and Currents Weather Stations Pressure Air Temp Water Temp Dewpoint Dewpoint Depression Visibility Wind Speed Wind Dir Waves Ship Positions

Frezya S

Last reported at 2017-Sep-23 19:41 UTC. Time now 2017-Sep-24 07:03 UTC.
Position N 36°03' E 030°32'.

Length 120 m; draft 6.9 m.

Type: Cargo ship. MMSI: 374040000.

Date/timePositionNaut miles runAvg speedWind from/ knotsBaromVisibWave heightAir tempDewpointWater temp
2017-Sep-23 19:41N 36°03' E 030°32'  
2017-Sep-19 20:06N 42°23' E 029°32'2 9.4
2017-Sep-19 19:51N 42°26' E 029°33'4 9.5
2017-Sep-19 19:27N 42°29' E 029°34'4 9.4
2017-Sep-19 19:01N 42°33' E 029°36'5 9.3
2017-Sep-19 18:31N 42°38' E 029°37'5 9.2
2017-Sep-19 18:00N 42°42' E 029°39'5 9.3
2017-Sep-19 17:30N 42°47' E 029°41'5 9.3
2017-Sep-19 16:57N 42°52' E 029°42'28 9.6
2017-Sep-19 14:02N 43°19' E 029°52'1 9.8
2017-Sep-19 13:57N 43°20' E 029°53'5 9.8
2017-Sep-19 13:23N 43°25' E 029°55'180 9.7
2017-Sep-18 18:47N 46°19' E 030°56'4 9.8
2017-Sep-18 18:21N 46°24' E 030°56'3 9.7
2017-Sep-18 18:01N 46°27' E 030°56'8 7.8
2017-Sep-18 16:57N 46°34' E 031°02'4 8.6
2017-Sep-18 16:30N 46°35' E 031°08'5 9.1
2017-Sep-18 15:57N 46°35' E 031°15'14 8.1
2017-Sep-18 14:17N 46°35' E 031°35'4 8.5
2017-Sep-18 13:47N 46°36' E 031°41'2 8.7
2017-Sep-18 13:30N 46°36' E 031°44'5 8.4
2017-Sep-18 12:57N 46°37' E 031°51'4 8.3
2017-Sep-18 12:31N 46°39' E 031°55'4 8.4
2017-Sep-18 12:01N 46°43' E 031°56'4 8.1
2017-Sep-18 11:31N 46°46' E 031°53'4 8.2
2017-Sep-18 11:00N 46°50' E 031°56'4 8.8
2017-Sep-18 10:30N 46°54' E 032°00'3 5.9
2017-Sep-18 10:01N 46°56' E 031°59'0 0.5
2017-Sep-18 09:28N 46°57' E 031°59'0 0.0
2017-Sep-18 08:58N 46°57' E 031°59'0 0.0
2017-Sep-18 08:28N 46°57' E 031°59'0 0.0
2017-Sep-18 07:58N 46°57' E 031°59'0 0.0
2017-Sep-18 07:28N 46°57' E 031°59'0 0.0
2017-Sep-18 06:58N 46°57' E 031°59'0 0.0
2017-Sep-18 06:28N 46°57' E 031°59'0 0.0
2017-Sep-18 05:58N 46°57' E 031°59'0 0.0
2017-Sep-18 05:25N 46°57' E 031°59'0 0.0
2017-Sep-18 04:58N 46°57' E 031°59'0 0.0
2017-Sep-18 04:28N 46°57' E 031°59'0 0.0
2017-Sep-18 03:58N 46°57' E 031°59'0 0.0
2017-Sep-18 03:28N 46°57' E 031°59'0 0.0
2017-Sep-18 02:58N 46°57' E 031°59'0 0.0
2017-Sep-18 02:28N 46°57' E 031°59'0 0.0
2017-Sep-18 01:58N 46°57' E 031°59'0 0.0
2017-Sep-18 01:28N 46°57' E 031°59'0 0.0
2017-Sep-18 00:58N 46°57' E 031°59'0 0.0
2017-Sep-18 00:28N 46°57' E 031°59'0 0.0
2017-Sep-17 23:58N 46°57' E 031°59'0 0.0
2017-Sep-17 23:28N 46°57' E 031°59'0 0.0
2017-Sep-17 22:58N 46°57' E 031°59'0 0.0
2017-Sep-17 22:28N 46°57' E 031°59'0 0.0
2017-Sep-17 21:58N 46°57' E 031°59'0 0.0
2017-Sep-17 21:28N 46°57' E 031°59'0 0.0
2017-Sep-17 20:58N 46°57' E 031°59'0 0.0
2017-Sep-17 20:28N 46°57' E 031°59'0 0.0
2017-Sep-17 19:58N 46°57' E 031°59'0 0.0
2017-Sep-17 19:25N 46°57' E 031°59'0 0.0
2017-Sep-17 18:58N 46°57' E 031°59'0 0.0
2017-Sep-17 18:28N 46°57' E 031°59'0 0.0
2017-Sep-17 17:58N 46°57' E 031°59'0 0.0
2017-Sep-17 17:22N 46°57' E 031°59'0 0.0
2017-Sep-17 16:58N 46°57' E 031°59'0 0.0
2017-Sep-17 16:28N 46°57' E 031°59'0 0.0
2017-Sep-17 15:58N 46°57' E 031°59'0 0.0
2017-Sep-17 15:28N 46°57' E 031°59'0 0.0
2017-Sep-17 14:58N 46°57' E 031°59'0 0.0
2017-Sep-17 14:28N 46°57' E 031°59'0 0.0
2017-Sep-17 13:58N 46°57' E 031°59'0 0.0
2017-Sep-17 13:28N 46°57' E 031°59'0 0.0
2017-Sep-17 12:58N 46°57' E 031°59'0 0.0
2017-Sep-17 12:28N 46°57' E 031°59'0 0.0
2017-Sep-17 11:55N 46°57' E 031°59'0 0.0
2017-Sep-17 11:28N 46°57' E 031°59'0 0.0
2017-Sep-17 10:58N 46°57' E 031°59'0 0.0
2017-Sep-17 10:28N 46°57' E 031°59'0 0.0
2017-Sep-17 09:58N 46°57' E 031°59'0 0.0
2017-Sep-17 09:28N 46°57' E 031°59'0 0.1
2017-Sep-17 08:58N 46°57' E 031°59'0 0.0
2017-Sep-17 08:28N 46°57' E 031°59'0 0.0
2017-Sep-17 07:58N 46°57' E 031°59'0 0.0
2017-Sep-17 07:28N 46°57' E 031°59'0 0.0
2017-Sep-17 06:58N 46°57' E 031°59'0 0.0
2017-Sep-17 06:25N 46°57' E 031°59'0 0.0
2017-Sep-17 05:58N 46°57' E 031°59'0 0.0
2017-Sep-17 05:28N 46°57' E 031°59'0 0.0
2017-Sep-17 04:58N 46°57' E 031°59'0 0.0
2017-Sep-17 04:28N 46°57' E 031°59'0 0.0
2017-Sep-17 03:58N 46°57' E 031°59'0 0.0
2017-Sep-17 03:28N 46°57' E 031°59'0 0.0
2017-Sep-17 02:55N 46°57' E 031°59'0 0.0
2017-Sep-17 02:25N 46°57' E 031°59'0 0.0
2017-Sep-17 01:58N 46°57' E 031°59'0 0.0
2017-Sep-17 01:28N 46°57' E 031°59'0 0.0
2017-Sep-17 00:58N 46°57' E 031°59'0 0.0
2017-Sep-17 00:28N 46°57' E 031°59'0 0.0
2017-Sep-16 23:58N 46°57' E 031°59'0 0.0
2017-Sep-16 23:28N 46°57' E 031°59'0 0.0
2017-Sep-16 22:58N 46°57' E 031°59'0 0.0
2017-Sep-16 22:28N 46°57' E 031°59'0 0.0
2017-Sep-16 21:58N 46°57' E 031°59'0 0.0
2017-Sep-16 21:28N 46°57' E 031°59'0 0.0
2017-Sep-16 20:58N 46°57' E 031°59'0 0.0
2017-Sep-16 20:28N 46°57' E 031°59'0 0.0
2017-Sep-16 19:58N 46°57' E 031°59'0 0.0
2017-Sep-16 19:28N 46°57' E 031°59'0 0.0
2017-Sep-16 18:58N 46°57' E 031°59'0 0.0
2017-Sep-16 18:28N 46°57' E 031°59'0 0.0
2017-Sep-16 17:58N 46°57' E 031°59'0 0.0
2017-Sep-16 17:28N 46°57' E 031°59'0 0.0
2017-Sep-16 16:58N 46°57' E 031°59'0 0.0
2017-Sep-16 16:28N 46°57' E 031°59'0 0.0
2017-Sep-16 15:58N 46°57' E 031°59'0 0.1
2017-Sep-16 15:30N 46°57' E 031°59'2 3.8
2017-Sep-16 15:00N 46°55' E 032°01'4 8.8
2017-Sep-16 14:30N 46°52' E 031°58'510.4
2017-Sep-16 14:00N 46°48' E 031°53'5 9.8
2017-Sep-16 13:30N 46°43' E 031°56'510.3
2017-Sep-16 13:01N 46°38' E 031°55'510.4
2017-Sep-16 12:30N 46°36' E 031°48'610.6
2017-Sep-16 11:59N 46°36' E 031°40'10 9.7
2017-Sep-16 10:55N 46°35' E 031°25'4 9.9
2017-Sep-16 10:30N 46°35' E 031°19'17 8.0
2017-Sep-16 08:25N 46°28' E 030°57'410.1
2017-Sep-16 07:59N 46°23' E 030°57'19 9.6
2017-Sep-16 06:02N 46°06' E 031°06'110.0
2017-Sep-16 05:54N 46°05' E 031°06'4 9.9
2017-Sep-16 05:30N 46°01' E 031°04'60 9.6
2017-Sep-15 23:13N 45°03' E 030°40'210.0
2017-Sep-15 23:00N 45°01' E 030°39'510.2
2017-Sep-15 22:29N 44°56' E 030°37'510.1
2017-Sep-15 22:00N 44°51' E 030°36'510.3
2017-Sep-15 21:29N 44°46' E 030°33'510.2
2017-Sep-15 21:00N 44°41' E 030°31'510.1
2017-Sep-15 20:31N 44°36' E 030°29'5 9.9
2017-Sep-15 20:00N 44°31' E 030°27'5 9.9
2017-Sep-15 19:30N 44°27' E 030°26'5 9.9
2017-Sep-15 19:00N 44°22' E 030°24'5 9.9
2017-Sep-15 18:30N 44°17' E 030°22'510.0
2017-Sep-15 18:00N 44°12' E 030°20'510.0
2017-Sep-15 17:30N 44°08' E 030°18'5 9.8
2017-Sep-15 17:00N 44°03' E 030°16'5 9.9
2017-Sep-15 16:30N 43°58' E 030°14'510.0
2017-Sep-15 16:01N 43°53' E 030°12'5 9.7
2017-Sep-15 15:31N 43°49' E 030°11'5 9.8
2017-Sep-15 15:00N 43°44' E 030°09'5 9.8
2017-Sep-15 14:30N 43°39' E 030°07'5 9.8
2017-Sep-15 14:00N 43°34' E 030°05'5 9.8
2017-Sep-15 13:30N 43°30' E 030°03'510.0
2017-Sep-15 13:00N 43°25' E 030°01'510.0
2017-Sep-15 12:30N 43°20' E 029°59'510.1
2017-Sep-15 12:00N 43°15' E 029°57'510.1
2017-Sep-15 11:30N 43°10' E 029°55'510.1
2017-Sep-15 11:00N 43°06' E 029°53'510.1
2017-Sep-15 10:30N 43°01' E 029°51'510.2
2017-Sep-15 10:00N 42°56' E 029°50'510.1
2017-Sep-15 09:30N 42°51' E 029°48'510.1
2017-Sep-15 09:00N 42°46' E 029°46'510.0
2017-Sep-15 08:30N 42°41' E 029°44'5 9.9
2017-Sep-15 08:00N 42°37' E 029°42'5 9.8
2017-Sep-15 07:30N 42°32' E 029°40'5 9.9
2017-Sep-15 07:00N 42°27' E 029°38'5 9.9
2017-Sep-15 06:30N 42°22' E 029°37'510.0
2017-Sep-15 06:00N 42°17' E 029°35'510.1
2017-Sep-15 05:30N 42°13' E 029°33'510.2
2017-Sep-15 05:00N 42°08' E 029°31'510.1
2017-Sep-15 04:29N 42°03' E 029°29'610.1
2017-Sep-15 03:56N 41°57' E 029°27'410.0
2017-Sep-15 03:30N 41°53' E 029°25'5 9.9
2017-Sep-15 03:00N 41°48' E 029°23'5 9.7
2017-Sep-15 02:30N 41°44' E 029°22'5 9.2
2017-Sep-15 02:00N 41°39' E 029°20'5 9.2
2017-Sep-15 01:28N 41°35' E 029°18'4 9.1
2017-Sep-15 01:00N 41°30' E 029°17'5 9.3
2017-Sep-15 00:30N 41°26' E 029°15'5 9.5
2017-Sep-15 00:00N 41°21' E 029°13'5 9.6
2017-Sep-14 23:30N 41°17' E 029°11'5 9.7
2017-Sep-14 23:00N 41°13' E 029°07'5 8.5
2017-Sep-14 22:25N 41°09' E 029°04'3 8.1
2017-Sep-14 22:00N 41°05' E 029°04'4 7.0
2017-Sep-14 21:30N 41°02' E 029°01'  
Track history (hours):
 
Tides and Currents Weather Stations Pressure Air Temp Water Temp Dewpoint Dewpoint Depression Visibility Wind Speed Wind Dir Waves Ship Positions

Frezya S

Last reported at 2017-Sep-23 19:41 UTC. Time now 2017-Sep-24 07:03 UTC.
Position N 36°03' E 030°32'.

Length 120 m; draft 6.9 m.

Type: Cargo ship. MMSI: 374040000.

Date/timePositionNaut miles runAvg speedWind from/ knotsBaromVisibWave heightAir tempDewpointWater temp
2017-Sep-23 19:41N 36°03' E 030°32'  
2017-Sep-19 20:06N 42°23' E 029°32'2 9.4
2017-Sep-19 19:51N 42°26' E 029°33'4 9.5
2017-Sep-19 19:27N 42°29' E 029°34'4 9.4
2017-Sep-19 19:01N 42°33' E 029°36'5 9.3
2017-Sep-19 18:31N 42°38' E 029°37'5 9.2
2017-Sep-19 18:00N 42°42' E 029°39'5 9.3
2017-Sep-19 17:30N 42°47' E 029°41'5 9.3
2017-Sep-19 16:57N 42°52' E 029°42'28 9.6
2017-Sep-19 14:02N 43°19' E 029°52'1 9.8
2017-Sep-19 13:57N 43°20' E 029°53'5 9.8
2017-Sep-19 13:23N 43°25' E 029°55'180 9.7
2017-Sep-18 18:47N 46°19' E 030°56'4 9.8
2017-Sep-18 18:21N 46°24' E 030°56'3 9.7
2017-Sep-18 18:01N 46°27' E 030°56'8 7.8
2017-Sep-18 16:57N 46°34' E 031°02'4 8.6
2017-Sep-18 16:30N 46°35' E 031°08'5 9.1
2017-Sep-18 15:57N 46°35' E 031°15'14 8.1
2017-Sep-18 14:17N 46°35' E 031°35'4 8.5
2017-Sep-18 13:47N 46°36' E 031°41'2 8.7
2017-Sep-18 13:30N 46°36' E 031°44'5 8.4
2017-Sep-18 12:57N 46°37' E 031°51'4 8.3
2017-Sep-18 12:31N 46°39' E 031°55'4 8.4
2017-Sep-18 12:01N 46°43' E 031°56'4 8.1
2017-Sep-18 11:31N 46°46' E 031°53'4 8.2
2017-Sep-18 11:00N 46°50' E 031°56'4 8.8
2017-Sep-18 10:30N 46°54' E 032°00'3 5.9
2017-Sep-18 10:01N 46°56' E 031°59'0 0.5
2017-Sep-18 09:28N 46°57' E 031°59'0 0.0
2017-Sep-18 08:58N 46°57' E 031°59'0 0.0
2017-Sep-18 08:28N 46°57' E 031°59'0 0.0
2017-Sep-18 07:58N 46°57' E 031°59'0 0.0
2017-Sep-18 07:28N 46°57' E 031°59'0 0.0
2017-Sep-18 06:58N 46°57' E 031°59'0 0.0
2017-Sep-18 06:28N 46°57' E 031°59'0 0.0
2017-Sep-18 05:58N 46°57' E 031°59'0 0.0
2017-Sep-18 05:25N 46°57' E 031°59'0 0.0
2017-Sep-18 04:58N 46°57' E 031°59'0 0.0
2017-Sep-18 04:28N 46°57' E 031°59'0 0.0
2017-Sep-18 03:58N 46°57' E 031°59'0 0.0
2017-Sep-18 03:28N 46°57' E 031°59'0 0.0
2017-Sep-18 02:58N 46°57' E 031°59'0 0.0
2017-Sep-18 02:28N 46°57' E 031°59'0 0.0
2017-Sep-18 01:58N 46°57' E 031°59'0 0.0
2017-Sep-18 01:28N 46°57' E 031°59'0 0.0
2017-Sep-18 00:58N 46°57' E 031°59'0 0.0
2017-Sep-18 00:28N 46°57' E 031°59'0 0.0
2017-Sep-17 23:58N 46°57' E 031°59'0 0.0
2017-Sep-17 23:28N 46°57' E 031°59'0 0.0
2017-Sep-17 22:58N 46°57' E 031°59'0 0.0
2017-Sep-17 22:28N 46°57' E 031°59'0 0.0
2017-Sep-17 21:58N 46°57' E 031°59'0 0.0
2017-Sep-17 21:28N 46°57' E 031°59'0 0.0
2017-Sep-17 20:58N 46°57' E 031°59'0 0.0
2017-Sep-17 20:28N 46°57' E 031°59'0 0.0
2017-Sep-17 19:58N 46°57' E 031°59'0 0.0
2017-Sep-17 19:25N 46°57' E 031°59'0 0.0
2017-Sep-17 18:58N 46°57' E 031°59'0 0.0
2017-Sep-17 18:28N 46°57' E 031°59'0 0.0
2017-Sep-17 17:58N 46°57' E 031°59'0 0.0
2017-Sep-17 17:22N 46°57' E 031°59'0 0.0
2017-Sep-17 16:58N 46°57' E 031°59'0 0.0
2017-Sep-17 16:28N 46°57' E 031°59'0 0.0
2017-Sep-17 15:58N 46°57' E 031°59'0 0.0
2017-Sep-17 15:28N 46°57' E 031°59'0 0.0
2017-Sep-17 14:58N 46°57' E 031°59'0 0.0
2017-Sep-17 14:28N 46°57' E 031°59'0 0.0
2017-Sep-17 13:58N 46°57' E 031°59'0 0.0
2017-Sep-17 13:28N 46°57' E 031°59'0 0.0
2017-Sep-17 12:58N 46°57' E 031°59'0 0.0
2017-Sep-17 12:28N 46°57' E 031°59'0 0.0
2017-Sep-17 11:55N 46°57' E 031°59'0 0.0
2017-Sep-17 11:28N 46°57' E 031°59'0 0.0
2017-Sep-17 10:58N 46°57' E 031°59'0 0.0
2017-Sep-17 10:28N 46°57' E 031°59'0 0.0
2017-Sep-17 09:58N 46°57' E 031°59'0 0.0
2017-Sep-17 09:28N 46°57' E 031°59'0 0.1
2017-Sep-17 08:58N 46°57' E 031°59'0 0.0
2017-Sep-17 08:28N 46°57' E 031°59'0 0.0
2017-Sep-17 07:58N 46°57' E 031°59'0 0.0
2017-Sep-17 07:28N 46°57' E 031°59'0 0.0
2017-Sep-17 06:58N 46°57' E 031°59'0 0.0
2017-Sep-17 06:25N 46°57' E 031°59'0 0.0
2017-Sep-17 05:58N 46°57' E 031°59'0 0.0
2017-Sep-17 05:28N 46°57' E 031°59'0 0.0
2017-Sep-17 04:58N 46°57' E 031°59'0 0.0
2017-Sep-17 04:28N 46°57' E 031°59'0 0.0
2017-Sep-17 03:58N 46°57' E 031°59'0 0.0
2017-Sep-17 03:28N 46°57' E 031°59'0 0.0
2017-Sep-17 02:55N 46°57' E 031°59'0 0.0
2017-Sep-17 02:25N 46°57' E 031°59'0 0.0
2017-Sep-17 01:58N 46°57' E 031°59'0 0.0
2017-Sep-17 01:28N 46°57' E 031°59'0 0.0
2017-Sep-17 00:58N 46°57' E 031°59'0 0.0
2017-Sep-17 00:28N 46°57' E 031°59'0 0.0
2017-Sep-16 23:58N 46°57' E 031°59'0 0.0
2017-Sep-16 23:28N 46°57' E 031°59'0 0.0
2017-Sep-16 22:58N 46°57' E 031°59'0 0.0
2017-Sep-16 22:28N 46°57' E 031°59'0 0.0
2017-Sep-16 21:58N 46°57' E 031°59'0 0.0
2017-Sep-16 21:28N 46°57' E 031°59'0 0.0
2017-Sep-16 20:58N 46°57' E 031°59'0 0.0
2017-Sep-16 20:28N 46°57' E 031°59'0 0.0
2017-Sep-16 19:58N 46°57' E 031°59'0 0.0
2017-Sep-16 19:28N 46°57' E 031°59'0 0.0
2017-Sep-16 18:58N 46°57' E 031°59'0 0.0
2017-Sep-16 18:28N 46°57' E 031°59'0 0.0
2017-Sep-16 17:58N 46°57' E 031°59'0 0.0
2017-Sep-16 17:28N 46°57' E 031°59'0 0.0
2017-Sep-16 16:58N 46°57' E 031°59'0 0.0
2017-Sep-16 16:28N 46°57' E 031°59'0 0.0
2017-Sep-16 15:58N 46°57' E 031°59'0 0.1
2017-Sep-16 15:30N 46°57' E 031°59'2 3.8
2017-Sep-16 15:00N 46°55' E 032°01'4 8.8
2017-Sep-16 14:30N 46°52' E 031°58'510.4
2017-Sep-16 14:00N 46°48' E 031°53'5 9.8
2017-Sep-16 13:30N 46°43' E 031°56'510.3
2017-Sep-16 13:01N 46°38' E 031°55'510.4
2017-Sep-16 12:30N 46°36' E 031°48'610.6
2017-Sep-16 11:59N 46°36' E 031°40'10 9.7
2017-Sep-16 10:55N 46°35' E 031°25'4 9.9
2017-Sep-16 10:30N 46°35' E 031°19'17 8.0
2017-Sep-16 08:25N 46°28' E 030°57'410.1
2017-Sep-16 07:59N 46°23' E 030°57'19 9.6
2017-Sep-16 06:02N 46°06' E 031°06'110.0
2017-Sep-16 05:54N 46°05' E 031°06'4 9.9
2017-Sep-16 05:30N 46°01' E 031°04'60 9.6
2017-Sep-15 23:13N 45°03' E 030°40'210.0
2017-Sep-15 23:00N 45°01' E 030°39'510.2
2017-Sep-15 22:29N 44°56' E 030°37'510.1
2017-Sep-15 22:00N 44°51' E 030°36'510.3
2017-Sep-15 21:29N 44°46' E 030°33'510.2
2017-Sep-15 21:00N 44°41' E 030°31'510.1
2017-Sep-15 20:31N 44°36' E 030°29'5 9.9
2017-Sep-15 20:00N 44°31' E 030°27'5 9.9
2017-Sep-15 19:30N 44°27' E 030°26'5 9.9
2017-Sep-15 19:00N 44°22' E 030°24'5 9.9
2017-Sep-15 18:30N 44°17' E 030°22'510.0
2017-Sep-15 18:00N 44°12' E 030°20'510.0
2017-Sep-15 17:30N 44°08' E 030°18'5 9.8
2017-Sep-15 17:00N 44°03' E 030°16'5 9.9
2017-Sep-15 16:30N 43°58' E 030°14'510.0
2017-Sep-15 16:01N 43°53' E 030°12'5 9.7
2017-Sep-15 15:31N 43°49' E 030°11'5 9.8
2017-Sep-15 15:00N 43°44' E 030°09'5 9.8
2017-Sep-15 14:30N 43°39' E 030°07'5 9.8
2017-Sep-15 14:00N 43°34' E 030°05'5 9.8
2017-Sep-15 13:30N 43°30' E 030°03'510.0
2017-Sep-15 13:00N 43°25' E 030°01'510.0
2017-Sep-15 12:30N 43°20' E 029°59'510.1
2017-Sep-15 12:00N 43°15' E 029°57'510.1
2017-Sep-15 11:30N 43°10' E 029°55'510.1
2017-Sep-15 11:00N 43°06' E 029°53'510.1
2017-Sep-15 10:30N 43°01' E 029°51'510.2
2017-Sep-15 10:00N 42°56' E 029°50'510.1
2017-Sep-15 09:30N 42°51' E 029°48'510.1
2017-Sep-15 09:00N 42°46' E 029°46'510.0
2017-Sep-15 08:30N 42°41' E 029°44'5 9.9
2017-Sep-15 08:00N 42°37' E 029°42'5 9.8
2017-Sep-15 07:30N 42°32' E 029°40'5 9.9
2017-Sep-15 07:00N 42°27' E 029°38'5 9.9
2017-Sep-15 06:30N 42°22' E 029°37'510.0
2017-Sep-15 06:00N 42°17' E 029°35'510.1
2017-Sep-15 05:30N 42°13' E 029°33'510.2
2017-Sep-15 05:00N 42°08' E 029°31'510.1
2017-Sep-15 04:29N 42°03' E 029°29'610.1
2017-Sep-15 03:56N 41°57' E 029°27'410.0
2017-Sep-15 03:30N 41°53' E 029°25'5 9.9
2017-Sep-15 03:00N 41°48' E 029°23'5 9.7
2017-Sep-15 02:30N 41°44' E 029°22'5 9.2
2017-Sep-15 02:00N 41°39' E 029°20'5 9.2
2017-Sep-15 01:28N 41°35' E 029°18'4 9.1
2017-Sep-15 01:00N 41°30' E 029°17'5 9.3
2017-Sep-15 00:30N 41°26' E 029°15'5 9.5
2017-Sep-15 00:00N 41°21' E 029°13'5 9.6
2017-Sep-14 23:30N 41°17' E 029°11'5 9.7
2017-Sep-14 23:00N 41°13' E 029°07'5 8.5
2017-Sep-14 22:25N 41°09' E 029°04'3 8.1
2017-Sep-14 22:00N 41°05' E 029°04'4 7.0
2017-Sep-14 21:30N 41°02' E 029°01'  

Dump ship's entire track history